Time;durP1;ratioP1;P1;durP2;ratioP2;P2;SDS_P1;SDS_P2;PMS_P1;PMS_P2;Temp;Humidity;BMP_temperature;BMP_pressure;BME280_temperature;BME280_humidity;BME280_pressure;Samples;Min_cycle;Max_cycle;Signal;HPM_P1;HPM_P2
2022/08/30 00:02:33;;;;;;;3.63;2.17;;;19.80;86.10;;;;;;5083710;28;20430;-86
2022/08/30 00:05:00;;;;;;;2.25;1.95;;;19.70;86.30;;;;;;5066616;28;20024;-86
2022/08/30 00:07:26;;;;;;;4.30;1.70;;;19.70;86.50;;;;;;5066370;28;20468;-86
2022/08/30 00:09:55;;;;;;;4.05;2.05;;;19.70;86.50;;;;;;5066263;28;20376;-86
2022/08/30 00:12:20;;;;;;;5.43;2.40;;;19.70;86.50;;;;;;5083792;28;20028;-88
2022/08/30 00:14:47;;;;;;;2.42;1.80;;;19.70;86.50;;;;;;5086977;28;20031;-87
2022/08/30 00:17:13;;;;;;;2.70;1.80;;;19.70;86.60;;;;;;5086550;28;20028;-88
2022/08/30 00:19:39;;;;;;;3.20;1.85;;;19.70;86.50;;;;;;5086241;28;20016;-87
2022/08/30 00:22:06;;;;;;;2.97;2.08;;;19.80;86.50;;;;;;5086057;28;20081;-88
2022/08/30 00:24:32;;;;;;;3.50;1.88;;;19.70;86.40;;;;;;5086434;28;20032;-88
2022/08/30 00:27:00;;;;;;;4.88;2.17;;;19.70;86.60;;;;;;5084005;28;20024;-88
2022/08/30 00:29:32;;;;;;;6.22;2.50;;;19.60;86.80;;;;;;5084595;28;20036;-88
2022/08/30 00:32:01;;;;;;;2.95;2.08;;;19.60;87.00;;;;;;5084867;28;20027;-88
2022/08/30 00:34:31;;;;;;;3.05;1.92;;;19.60;87.00;;;;;;5068627;28;20404;-86
2022/08/30 00:36:58;;;;;;;2.72;1.98;;;19.60;87.00;;;;;;5068606;28;20040;-86
2022/08/30 00:39:29;;;;;;;4.32;2.42;;;19.60;87.00;;;;;;5085931;28;20390;-87
2022/08/30 00:41:56;;;;;;;4.20;2.17;;;19.60;87.20;;;;;;5081768;28;20043;-86
2022/08/30 00:44:23;;;;;;;5.50;2.08;;;19.60;87.30;;;;;;5048809;28;20512;-87
2022/08/30 00:46:49;;;;;;;3.30;2.20;;;19.60;87.40;;;;;;5065291;28;20025;-88
2022/08/30 00:49:16;;;;;;;3.00;2.13;;;19.50;87.70;;;;;;5064389;28;20033;-87
2022/08/30 00:51:42;;;;;;;4.10;2.28;;;19.50;88.50;;;;;;5064852;28;20070;-86
2022/08/30 00:54:10;;;;;;;3.92;2.60;;;19.50;88.00;;;;;;5082601;28;20027;-88
2022/08/30 00:56:35;;;;;;;4.10;2.58;;;19.50;87.90;;;;;;5102761;28;20032;-88
2022/08/30 00:59:04;;;;;;;3.33;2.38;;;19.50;87.80;;;;;;5101836;28;20027;-88
2022/08/30 01:01:31;;;;;;;3.47;2.47;;;19.50;87.80;;;;;;5084370;28;20024;-87
2022/08/30 01:03:59;;;;;;;4.25;2.33;;;19.50;87.80;;;;;;5087327;28;20039;-88
2022/08/30 01:06:25;;;;;;;5.20;2.80;;;19.40;88.10;;;;;;5063277;28;20085;-89
2022/08/30 01:09:02;;;;;;;4.22;2.60;;;19.40;88.30;;;;;;5048229;28;20032;-88
2022/08/30 01:11:37;;;;;;;2.90;2.42;;;19.40;88.50;;;;;;5065098;28;20036;-88
2022/08/30 01:14:10;;;;;;;3.10;2.38;;;19.30;88.50;;;;;;5073545;28;20443;-88
2022/08/30 01:16:43;;;;;;;3.75;2.35;;;19.30;88.60;;;;;;5081439;28;20048;-87
2022/08/30 01:19:27;;;;;;;3.10;2.50;;;19.30;88.80;;;;;;5081309;28;20033;-88
2022/08/30 01:22:00;;;;;;;4.28;2.60;;;19.30;89.00;;;;;;5082067;28;20052;-89
2022/08/30 01:24:28;;;;;;;5.78;2.88;;;19.30;88.80;;;;;;5074088;28;20017;-87
2022/08/30 01:26:54;;;;;;;4.13;2.30;;;19.30;88.80;;;;;;5061314;28;20029;-87
2022/08/30 01:29:28;;;;;;;4.72;2.80;;;19.30;88.90;;;;;;5044253;28;20035;-87
2022/08/30 01:31:54;;;;;;;2.85;2.53;;;19.30;88.80;;;;;;5061477;28;20021;-88
2022/08/30 01:34:24;;;;;;;2.95;2.28;;;19.30;88.80;;;;;;5043472;28;20044;-88
2022/08/30 01:36:50;;;;;;;4.07;2.65;;;19.30;89.00;;;;;;5060515;28;20037;-88
2022/08/30 01:39:18;;;;;;;3.53;2.25;;;19.30;89.00;;;;;;5061659;28;20518;-89
2022/08/30 01:41:47;;;;;;;3.08;2.50;;;19.30;89.00;;;;;;5061390;28;20031;-87
2022/08/30 01:44:14;;;;;;;3.65;2.88;;;19.30;89.10;;;;;;5055653;28;20031;-86
2022/08/30 01:46:44;;;;;;;3.92;2.40;;;19.30;89.10;;;;;;5094613;28;20024;-88
2022/08/30 01:49:16;;;;;;;4.50;3.03;;;19.30;89.10;;;;;;5098892;28;20013;-88
2022/08/30 01:51:45;;;;;;;5.43;3.40;;;19.30;89.20;;;;;;5099023;28;20012;-87
2022/08/30 01:54:15;;;;;;;3.70;2.80;;;19.20;89.60;;;;;;5098732;28;20093;-87
2022/08/30 01:56:41;;;;;;;3.97;2.65;;;19.20;89.60;;;;;;5098109;28;20013;-87
2022/08/30 01:59:07;;;;;;;3.45;2.47;;;19.20;89.60;;;;;;5104303;28;20028;-88
2022/08/30 02:01:35;;;;;;;3.72;2.78;;;19.20;89.40;;;;;;5097672;28;20094;-86
2022/08/30 02:04:13;;;;;;;3.65;3.08;;;19.20;89.40;;;;;;5081850;28;20020;-87
2022/08/30 02:06:40;;;;;;;3.42;2.55;;;19.20;89.50;;;;;;5080694;28;20020;-87
2022/08/30 02:09:06;;;;;;;2.55;2.35;;;19.30;89.50;;;;;;5081491;28;20021;-86
2022/08/30 02:11:43;;;;;;;3.05;2.47;;;19.30;89.20;;;;;;5081988;28;20029;-87
2022/08/30 02:14:09;;;;;;;3.60;2.65;;;19.30;89.20;;;;;;5080441;28;20028;-86
2022/08/30 02:16:38;;;;;;;4.25;2.70;;;19.30;89.20;;;;;;5079316;28;20075;-87
2022/08/30 02:19:06;;;;;;;4.25;2.90;;;19.30;89.20;;;;;;5080795;28;20043;-87
2022/08/30 02:21:37;;;;;;;3.60;3.20;;;19.30;89.80;;;;;;5082079;28;20048;-87
2022/08/30 02:24:06;;;;;;;;;;;19.20;89.20;;;;;;5097571;28;20067;-88
2022/08/30 02:26:35;;;;;;;4.53;3.55;;;19.20;89.20;;;;;;5079460;28;20439;-87
2022/08/30 02:29:04;;;;;;;3.20;2.90;;;19.10;89.60;;;;;;5080096;28;20025;-87
2022/08/30 02:31:30;;;;;;;2.90;2.70;;;19.10;89.80;;;;;;5080488;28;20032;-88
2022/08/30 02:33:56;;;;;;;4.10;3.17;;;19.10;89.80;;;;;;5080188;28;20036;-88
2022/08/30 02:36:26;;;;;;;3.35;3.00;;;19.10;89.80;;;;;;5078210;28;20024;-88
2022/08/30 02:38:52;;;;;;;4.72;3.47;;;19.10;89.60;;;;;;5080180;28;20032;-87
2022/08/30 02:41:30;;;;;;;3.17;2.88;;;19.10;89.70;;;;;;5079264;28;20510;-87
2022/08/30 02:43:59;;;;;;;3.38;3.08;;;19.10;89.90;;;;;;5079590;28;20029;-87
2022/08/30 02:46:26;;;;;;;4.55;3.35;;;19.10;89.90;;;;;;5062412;28;20047;-88
2022/08/30 02:48:52;;;;;;;3.78;3.20;;;19.00;90.20;;;;;;5080652;28;20463;-88
2022/08/30 02:51:20;;;;;;;3.22;2.90;;;19.00;89.90;;;;;;5096753;28;20052;-88
2022/08/30 02:53:46;;;;;;;4.03;2.78;;;19.00;90.00;;;;;;5078478;28;20020;-88
2022/08/30 02:56:19;;;;;;;2.95;2.65;;;19.00;90.00;;;;;;5079550;28;20036;-88
2022/08/30 02:58:47;;;;;;;3.70;3.08;;;19.00;90.00;;;;;;5079464;28;20036;-88
2022/08/30 03:01:14;;;;;;;3.67;3.33;;;19.00;90.00;;;;;;5096896;28;20070;-88
2022/08/30 03:03:49;;;;;;;3.38;3.08;;;19.00;90.00;;;;;;5061631;28;20028;-87
2022/08/30 03:06:15;;;;;;;4.53;3.28;;;19.00;90.00;;;;;;5042495;28;20488;-88
2022/08/30 03:08:43;;;;;;;3.90;3.10;;;19.00;89.90;;;;;;5059739;28;20042;-88
2022/08/30 03:11:10;;;;;;;4.22;2.95;;;19.00;89.90;;;;;;5059860;28;20021;-87
2022/08/30 03:13:41;;;;;;;3.28;2.97;;;19.10;89.90;;;;;;5059428;28;20021;-88
2022/08/30 03:16:07;;;;;;;4.18;3.35;;;19.10;90.00;;;;;;5066841;28;20037;-88
2022/08/30 03:18:33;;;;;;;3.33;2.92;;;19.10;89.90;;;;;;5077739;28;20047;-88
2022/08/30 03:21:00;;;;;;;4.72;4.22;;;19.00;89.90;;;;;;5077582;28;20029;-88
2022/08/30 03:23:31;;;;;;;4.18;3.63;;;19.00;90.00;;;;;;5044156;28;20021;-88
2022/08/30 03:25:57;;;;;;;;;;;18.90;90.00;;;;;;5060666;28;20207;-88
2022/08/30 03:28:23;;;;;;;4.68;3.40;;;18.90;90.00;;;;;;5043479;28;20328;-88
2022/08/30 03:30:49;;;;;;;4.72;3.55;;;18.90;90.00;;;;;;5063865;28;20036;-86
2022/08/30 03:33:18;;;;;;;3.75;3.40;;;18.80;90.10;;;;;;5051109;28;20025;-90
2022/08/30 03:35:46;;;;;;;3.25;2.95;;;18.90;90.10;;;;;;5069424;28;20069;-87
2022/08/30 03:38:16;;;;;;;4.13;3.35;;;18.80;90.10;;;;;;5086641;28;20029;-88
2022/08/30 03:40:44;;;;;;;3.67;3.30;;;18.80;90.10;;;;;;5098751;28;20023;-87
2022/08/30 03:43:10;;;;;;;3.55;3.25;;;18.80;90.10;;;;;;5101515;28;20056;-87
2022/08/30 03:45:38;;;;;;;3.90;3.55;;;18.80;90.10;;;;;;5084855;28;20009;-89
2022/08/30 03:48:04;;;;;;;5.10;4.00;;;18.80;90.10;;;;;;5099746;28;20072;-87
2022/08/30 03:50:34;;;;;;;3.80;3.45;;;18.70;90.10;;;;;;5100895;28;20009;-87
2022/08/30 03:53:01;;;;;;;4.57;3.50;;;18.80;90.20;;;;;;5068743;28;20024;-86
2022/08/30 03:55:30;;;;;;;3.83;3.47;;;18.70;90.20;;;;;;5085071;28;20016;-87
2022/08/30 03:57:56;;;;;;;4.22;3.10;;;18.80;90.20;;;;;;5045944;28;20492;-88
2022/08/30 04:00:22;;;;;;;5.30;3.30;;;18.70;90.10;;;;;;5063760;28;20027;-86
2022/08/30 04:02:54;;;;;;;3.55;2.90;;;18.70;90.10;;;;;;5062606;28;20493;-87
2022/08/30 04:05:23;;;;;;;4.93;3.30;;;18.70;90.20;;;;;;5062189;28;20033;-87
2022/08/30 04:07:51;;;;;;;4.50;3.15;;;18.70;90.10;;;;;;5046584;28;20113;-87
2022/08/30 04:10:20;;;;;;;3.72;3.33;;;18.70;90.20;;;;;;5062027;28;20047;-87
2022/08/30 04:12:48;;;;;;;3.30;2.97;;;18.70;90.10;;;;;;5062221;28;20017;-88
2022/08/30 04:15:15;;;;;;;4.00;2.97;;;18.70;90.10;;;;;;5062238;28;20063;-87
2022/08/30 04:17:40;;;;;;;3.90;3.50;;;18.70;90.10;;;;;;5063491;28;20079;-88
2022/08/30 04:20:10;;;;;;;3.72;3.35;;;18.70;90.10;;;;;;5099912;28;20025;-86
2022/08/30 04:22:38;;;;;;;4.28;3.45;;;18.70;90.10;;;;;;5081512;28;20078;-86
2022/08/30 04:25:13;;;;;;;3.72;3.33;;;18.60;90.20;;;;;;5098742;28;20031;-86
2022/08/30 04:27:39;;;;;;;4.75;3.20;;;18.60;90.20;;;;;;5099276;28;20136;-89
2022/08/30 04:30:05;;;;;;;3.75;3.28;;;18.60;90.30;;;;;;5080030;28;20033;-87
2022/08/30 04:32:34;;;;;;;3.75;3.13;;;18.50;90.30;;;;;;5061802;28;20047;-89
2022/08/30 04:35:01;;;;;;;3.47;2.83;;;18.50;90.30;;;;;;5061789;28;20507;-88
2022/08/30 04:37:26;;;;;;;4.55;3.35;;;18.50;90.30;;;;;;5061902;28;20020;-88
2022/08/30 04:40:02;;;;;;;3.97;3.45;;;18.40;90.30;;;;;;5076531;28;20020;-88
2022/08/30 04:42:33;;;;;;;3.42;2.75;;;18.40;90.40;;;;;;5083266;28;20551;-87
2022/08/30 04:45:06;;;;;;;6.03;3.45;;;18.30;90.40;;;;;;5082212;28;20410;-88
2022/08/30 04:47:37;;;;;;;3.22;2.92;;;18.40;90.40;;;;;;5081855;28;20023;-88
2022/08/30 04:50:10;;;;;;;3.47;3.15;;;18.30;90.30;;;;;;5065903;28;20044;-88
2022/08/30 04:52:39;;;;;;;4.40;3.05;;;18.30;90.30;;;;;;5081968;28;20025;-88
2022/08/30 04:55:11;;;;;;;3.65;3.25;;;18.30;90.30;;;;;;5083237;28;20040;-86
2022/08/30 04:57:43;;;;;;;3.70;3.08;;;18.30;90.30;;;;;;5082657;28;20372;-87
2022/08/30 05:00:14;;;;;;;3.10;2.80;;;18.40;90.30;;;;;;5081407;28;20016;-87
2022/08/30 05:02:41;;;;;;;2.78;2.45;;;18.30;90.20;;;;;;5065379;28;20025;-88
2022/08/30 05:07:55;;;;;;;2.92;2.72;;;18.40;90.10;;;;;;5083739;28;20031;-88
2022/08/30 05:10:24;;;;;;;4.63;3.15;;;18.30;90.10;;;;;;5081705;28;20037;-89
2022/08/30 05:12:52;;;;;;;3.55;3.10;;;18.30;90.20;;;;;;5081807;28;20081;-88
2022/08/30 05:15:21;;;;;;;4.20;3.20;;;18.20;90.20;;;;;;5081903;28;20029;-88
2022/08/30 05:17:48;;;;;;;4.65;3.13;;;18.20;90.30;;;;;;5098341;28;20139;-87
2022/08/30 05:20:18;;;;;;;3.08;2.78;;;18.20;90.30;;;;;;5065298;28;20033;-88
2022/08/30 05:22:50;;;;;;;3.40;3.10;;;18.20;90.30;;;;;;5065308;28;20045;-88
2022/08/30 05:25:25;;;;;;;3.50;3.20;;;18.10;90.30;;;;;;5063733;28;20083;-90
2022/08/30 05:27:54;;;;;;;6.32;3.08;;;18.10;90.30;;;;;;5062098;28;20048;-89
2022/08/30 05:30:22;;;;;;;3.22;2.70;;;18.20;90.40;;;;;;5062171;28;20025;-85
2022/08/30 05:32:48;;;;;;;4.22;2.60;;;18.20;90.30;;;;;;5076760;28;20024;-88
2022/08/30 05:35:18;;;;;;;3.95;3.00;;;18.20;90.30;;;;;;5096407;28;20041;-87
2022/08/30 05:37:47;;;;;;;4.05;2.42;;;18.30;90.30;;;;;;5099749;28;20022;-88
2022/08/30 05:40:16;;;;;;;3.78;2.60;;;18.30;90.20;;;;;;5080476;28;20024;-87
2022/08/30 05:42:45;;;;;;;3.40;3.10;;;18.30;90.20;;;;;;5095981;28;20005;-90
2022/08/30 05:45:12;;;;;;;3.70;2.60;;;18.30;90.10;;;;;;5094257;28;20032;-87
2022/08/30 05:47:39;;;;;;;3.30;3.00;;;18.20;90.20;;;;;;5082172;28;20048;-86
2022/08/30 05:50:09;;;;;;;2.80;2.50;;;18.20;90.10;;;;;;5081670;28;20021;-88
2022/08/30 05:52:37;;;;;;;3.13;2.67;;;18.30;90.10;;;;;;5081264;28;20411;-87
2022/08/30 05:55:06;;;;;;;3.47;2.92;;;18.30;90.10;;;;;;5080638;28;20029;-88
2022/08/30 05:57:37;;;;;;;4.07;3.03;;;18.40;90.10;;;;;;5080775;28;20017;-86
2022/08/30 06:00:22;;;;;;;2.78;2.58;;;18.30;90.00;;;;;;5062865;28;20021;-88
2022/08/30 06:02:53;;;;;;;3.00;2.80;;;18.30;90.10;;;;;;5080709;28;20028;-88
2022/08/30 06:05:19;;;;;;;3.83;2.58;;;18.30;90.10;;;;;;5081195;28;20032;-89
2022/08/30 06:07:45;;;;;;;3.40;3.10;;;18.30;90.10;;;;;;5064385;28;20415;-87
2022/08/30 06:10:11;;;;;;;2.85;2.53;;;18.30;90.10;;;;;;5064243;28;20033;-87
2022/08/30 06:12:44;;;;;;;3.97;2.90;;;18.30;90.20;;;;;;5079493;28;20044;-88
2022/08/30 06:15:11;;;;;;;6.32;3.60;;;18.20;90.20;;;;;;5060439;28;20033;-88
2022/08/30 06:17:38;;;;;;;3.92;2.70;;;18.20;90.30;;;;;;5060120;28;20064;-88
2022/08/30 06:20:08;;;;;;;3.75;2.75;;;18.20;90.40;;;;;;5060249;28;20021;-88
2022/08/30 06:22:33;;;;;;;4.00;3.03;;;18.20;90.30;;;;;;5043869;28;20033;-88
2022/08/30 06:24:59;;;;;;;2.72;2.42;;;18.10;90.20;;;;;;5069677;28;20124;-89
2022/08/30 06:27:25;;;;;;;2.80;2.38;;;18.20;90.40;;;;;;5097071;28;20391;-87
2022/08/30 06:30:19;;;;;;;2.83;2.50;;;18.20;90.30;;;;;;5079380;28;20041;-89
2022/08/30 06:32:47;;;;;;;2.83;2.47;;;18.20;90.30;;;;;;5080615;28;20020;-87
2022/08/30 06:35:20;;;;;;;2.72;2.47;;;18.20;90.30;;;;;;5076435;28;20060;-88
2022/08/30 06:37:46;;;;;;;3.15;2.45;;;18.30;90.30;;;;;;5060745;28;20029;-88
2022/08/30 06:40:16;;;;;;;2.40;2.10;;;18.30;90.20;;;;;;5060412;28;20029;-88
2022/08/30 06:42:47;;;;;;;3.13;2.30;;;18.30;90.20;;;;;;5059079;28;20123;-87
2022/08/30 06:45:15;;;;;;;3.17;2.45;;;18.40;90.20;;;;;;5060459;28;20029;-88
2022/08/30 06:47:40;;;;;;;5.88;2.42;;;18.40;90.10;;;;;;5060295;28;20522;-87
2022/08/30 06:50:08;;;;;;;3.40;2.08;;;18.50;90.10;;;;;;5059868;28;20025;-87
2022/08/30 06:52:36;;;;;;;4.80;2.35;;;18.50;90.00;;;;;;5060297;28;20035;-87
2022/08/30 06:55:02;;;;;;;3.05;2.03;;;18.50;90.00;;;;;;5059488;28;20025;-87
2022/08/30 06:57:28;;;;;;;2.42;1.85;;;18.50;89.80;;;;;;5078351;28;20024;-86
2022/08/30 06:59:56;;;;;;;2.80;2.30;;;18.60;89.70;;;;;;5080418;28;20023;-88
2022/08/30 07:02:24;;;;;;;4.63;2.20;;;18.60;89.30;;;;;;5079391;28;20028;-88
2022/08/30 07:04:51;;;;;;;4.07;2.45;;;18.60;89.20;;;;;;5081008;28;20013;-88
2022/08/30 07:07:23;;;;;;;3.30;2.25;;;18.60;89.30;;;;;;5079056;28;20031;-87
2022/08/30 07:10:13;;;;;;;2.17;1.98;;;18.60;89.40;;;;;;5063561;28;20020;-87
2022/08/30 07:12:39;;;;;;;2.00;1.80;;;18.70;89.50;;;;;;5080528;28;20055;-88
2022/08/30 07:15:06;;;;;;;5.88;2.00;;;18.70;89.20;;;;;;5079637;28;20127;-87
2022/08/30 07:20:18;;;;;;;4.68;2.50;;;18.90;88.80;;;;;;5082493;28;20035;-87
2022/08/30 07:22:47;;;;;;;3.50;1.73;;;18.90;88.40;;;;;;5083149;28;20040;-89
2022/08/30 07:25:14;;;;;;;1.73;1.60;;;18.90;88.50;;;;;;5090333;28;20035;-87
2022/08/30 07:27:41;;;;;;;3.83;2.15;;;19.00;88.20;;;;;;5095513;28;20062;-87
2022/08/30 07:30:08;;;;;;;5.93;2.00;;;19.10;88.00;;;;;;5113945;28;20028;-89
2022/08/30 07:32:37;;;;;;;3.55;2.17;;;19.10;87.70;;;;;;5077039;28;20029;-86
2022/08/30 07:35:04;;;;;;;3.63;1.70;;;19.10;87.10;;;;;;5108910;28;20040;-89
2022/08/30 07:37:32;;;;;;;5.03;1.90;;;19.10;87.00;;;;;;5096151;28;20019;-87
2022/08/30 07:39:58;;;;;;;3.47;2.10;;;19.10;86.90;;;;;;5088919;28;20085;-88
2022/08/30 07:42:25;;;;;;;3.53;1.50;;;19.20;86.60;;;;;;5081332;28;20048;-89
2022/08/30 07:44:51;;;;;;;2.10;1.45;;;19.20;86.50;;;;;;5081764;28;20096;-85
2022/08/30 07:47:21;;;;;;;2.63;1.60;;;19.20;86.60;;;;;;5080418;28;20024;-88
2022/08/30 07:49:51;;;;;;;2.70;1.45;;;19.30;86.40;;;;;;5079685;28;20040;-88
2022/08/30 07:52:23;;;;;;;2.13;1.42;;;19.30;85.80;;;;;;5079283;28;20445;-88
2022/08/30 07:54:52;;;;;;;3.33;1.48;;;19.30;85.60;;;;;;5080253;28;20086;-87
2022/08/30 07:57:19;;;;;;;1.98;1.40;;;19.40;85.20;;;;;;5079858;28;20021;-88
2022/08/30 07:59:48;;;;;;;2.55;1.70;;;19.40;85.10;;;;;;5079554;28;20123;-89
2022/08/30 08:02:19;;;;;;;2.35;1.35;;;19.40;84.60;;;;;;5079858;28;20040;-88
2022/08/30 08:04:49;;;;;;;2.80;1.60;;;19.50;84.50;;;;;;5079919;28;20576;-87
2022/08/30 08:07:17;;;;;;;;;;;19.50;84.60;;;;;;5080810;28;20017;-88
2022/08/30 08:09:46;;;;;;;2.45;1.17;;;19.60;84.70;;;;;;5078014;28;19982;-89
2022/08/30 08:12:22;;;;;;;2.55;1.00;;;19.60;84.40;;;;;;5079762;28;20005;-89
2022/08/30 08:14:55;;;;;;;1.52;1.13;;;19.70;83.80;;;;;;5080963;28;20037;-88
2022/08/30 08:17:43;;;;;;;1.80;1.40;;;19.70;83.50;;;;;;5082495;28;20060;-87
2022/08/30 08:20:09;;;;;;;2.88;1.13;;;19.80;83.40;;;;;;5075878;28;20388;-88
2022/08/30 08:22:40;;;;;;;2.67;1.10;;;19.90;82.80;;;;;;5071772;28;20016;-87
2022/08/30 08:25:13;;;;;;;2.95;1.00;;;19.90;82.50;;;;;;5090067;28;20124;-88
2022/08/30 08:27:39;;;;;;;2.72;1.00;;;20.00;81.80;;;;;;5090366;28;20020;-89
2022/08/30 08:30:07;;;;;;;4.07;1.40;;;20.00;81.60;;;;;;5090935;28;20084;-87
2022/08/30 08:32:55;;;;;;;1.40;1.08;;;20.10;80.90;;;;;;5091892;28;20586;-89
2022/08/30 08:35:28;;;;;;;1.20;1.00;;;20.10;80.60;;;;;;5110587;28;20046;-86
2022/08/30 08:38:01;;;;;;;4.18;1.08;;;20.20;80.10;;;;;;5094310;28;20028;-89
2022/08/30 08:40:36;;;;;;;3.97;1.02;;;20.20;79.50;;;;;;5092084;28;20029;-89
2022/08/30 08:43:12;;;;;;;1.70;1.20;;;20.30;79.30;;;;;;5073872;28;20062;-88
2022/08/30 08:46:09;;;;;;;2.95;1.13;;;20.30;79.20;;;;;;5069905;28;20017;-88
2022/08/30 08:48:37;;;;;;;1.75;1.00;;;20.40;78.90;;;;;;5073618;28;20096;-89
2022/08/30 08:54:00;;;;;;;2.38;1.17;;;20.50;78.60;;;;;;5084895;28;20028;-90
2022/08/30 08:56:28;;;;;;;2.17;1.00;;;20.60;78.00;;;;;;5083326;28;20098;-88
2022/08/30 08:59:15;;;;;;;3.30;1.17;;;20.70;77.50;;;;;;5081165;28;20066;-90
2022/08/30 09:01:54;;;;;;;5.05;1.42;;;20.70;76.90;;;;;;5083387;28;20545;-89
2022/08/30 09:04:41;;;;;;;1.80;1.02;;;20.80;75.80;;;;;;5084785;28;20060;-89
2022/08/30 09:07:54;;;;;;;2.42;1.13;;;20.80;75.90;;;;;;5082013;28;20048;-91
2022/08/30 09:10:23;;;;;;;1.85;0.90;;;20.80;75.40;;;;;;5001850;28;20544;-88
2022/08/30 09:12:59;;;;;;;3.42;1.35;;;20.90;75.30;;;;;;5053398;28;20040;-89
2022/08/30 09:15:32;;;;;;;2.35;1.27;;;20.90;74.20;;;;;;5079198;28;20456;-88
2022/08/30 09:18:01;;;;;;;2.63;1.15;;;21.00;74.40;;;;;;5042337;28;20073;-88
2022/08/30 09:20:40;;;;;;;4.78;1.20;;;21.10;73.90;;;;;;5051621;28;20044;-89
2022/08/30 09:23:46;;;;;;;2.78;1.10;;;21.10;73.30;;;;;;5075674;28;20025;-89
2022/08/30 09:26:26;;;;;;;1.95;1.10;;;21.10;73.10;;;;;;5078774;28;20077;-88
2022/08/30 09:28:54;;;;;;;1.10;0.97;;;21.20;72.40;;;;;;5079343;28;20028;-88
2022/08/30 09:31:50;;;;;;;2.80;1.20;;;21.20;72.80;;;;;;5078774;28;20010;-89
2022/08/30 09:34:22;;;;;;;1.83;1.08;;;21.20;72.60;;;;;;5079270;28;20029;-89
2022/08/30 09:37:04;;;;;;;;;;;;;;;;;;;;;
2022/08/30 09:39:36;;;;;;;2.15;1.08;;;21.30;72.50;;;;;;5063626;28;20131;-88
2022/08/30 09:42:28;;;;;;;2.63;1.10;;;21.30;72.40;;;;;;5075365;28;20040;-88
2022/08/30 09:47:58;;;;;;;2.35;0.98;;;21.50;72.60;;;;;;5062004;28;20033;-89
2022/08/30 09:50:33;;;;;;;2.33;1.20;;;21.50;72.50;;;;;;5077580;28;20032;-87
2022/08/30 09:53:18;;;;;;;1.33;1.00;;;21.60;72.10;;;;;;5075355;28;20048;-88
2022/08/30 09:56:06;;;;;;;2.75;1.20;;;21.60;72.70;;;;;;5078104;28;20041;-88
2022/08/30 09:58:59;;;;;;;2.08;1.20;;;21.80;72.30;;;;;;5077527;28;20033;-89
2022/08/30 10:01:31;;;;;;;3.30;1.15;;;21.80;71.80;;;;;;5076242;28;20075;-89
2022/08/30 10:04:15;;;;;;;6.85;1.50;;;21.90;71.50;;;;;;5039756;28;20110;-91
2022/08/30 10:07:12;;;;;;;2.60;1.15;;;21.90;70.80;;;;;;5041112;28;20056;-89
2022/08/30 10:09:56;;;;;;;1.20;1.02;;;21.90;70.70;;;;;;5040496;28;20452;-89
2022/08/30 10:12:39;;;;;;;1.65;1.15;;;21.90;70.20;;;;;;5059036;28;20029;-87
2022/08/30 10:15:23;;;;;;;1.35;1.10;;;22.00;70.80;;;;;;5062521;28;20532;-87
2022/08/30 10:18:31;;;;;;;1.27;1.13;;;22.10;71.10;;;;;;5079151;28;20472;-88
2022/08/30 10:21:20;;;;;;;2.63;1.00;;;22.20;70.30;;;;;;5080651;28;20025;-89
2022/08/30 10:24:00;;;;;;;1.35;1.17;;;22.20;70.20;;;;;;5080576;28;20024;-89
2022/08/30 10:26:50;;;;;;;1.50;1.10;;;22.30;70.20;;;;;;5080951;28;20464;-87
2022/08/30 10:29:33;;;;;;;2.40;1.08;;;22.30;70.00;;;;;;5080866;28;20029;-88
2022/08/30 10:32:04;;;;;;;3.65;1.20;;;22.40;69.70;;;;;;5080661;28;20085;-88
2022/08/30 10:35:16;;;;;;;1.33;1.15;;;22.50;69.80;;;;;;5060700;28;20036;-87
2022/08/30 10:37:57;;;;;;;1.40;0.93;;;22.60;69.80;;;;;;5040495;28;20057;-87
2022/08/30 10:43:49;;;;;;;1.48;1.10;;;22.60;68.40;;;;;;5061210;28;20393;-89
2022/08/30 10:46:35;;;;;;;1.42;1.00;;;22.60;67.70;;;;;;5060157;28;20479;-88
2022/08/30 10:49:07;;;;;;;1.92;0.82;;;22.60;67.40;;;;;;5059846;28;20005;-89
2022/08/30 10:51:59;;;;;;;1.63;1.05;;;22.60;67.80;;;;;;5060278;28;20024;-87
2022/08/30 10:54:40;;;;;;;1.45;1.17;;;22.70;67.90;;;;;;5046424;28;20021;-90
2022/08/30 10:57:28;;;;;;;2.53;1.15;;;22.70;67.70;;;;;;5080632;28;20036;-87
2022/08/30 11:00:17;;;;;;;;;;;;;;;;;;;;;
2022/08/30 11:03:14;;;;;;;1.70;1.00;;;22.80;67.20;;;;;;5081632;28;20112;-89
2022/08/30 11:05:52;;;;;;;1.20;0.95;;;22.90;66.40;;;;;;5079755;28;20087;-90
2022/08/30 11:09:00;;;;;;;1.90;1.20;;;22.90;66.30;;;;;;5080977;28;20035;-89
2022/08/30 11:11:48;;;;;;;4.15;0.98;;;23.00;66.30;;;;;;5080026;28;20025;-89
2022/08/30 11:14:22;;;;;;;3.72;1.30;;;22.90;65.60;;;;;;5080533;28;20028;-88
2022/08/30 11:16:57;;;;;;;2.97;1.42;;;23.00;65.40;;;;;;5059448;28;20076;-89
2022/08/30 11:19:26;;;;;;;2.20;1.10;;;23.00;65.20;;;;;;5061030;28;20017;-88
2022/08/30 11:22:13;;;;;;;3.05;1.40;;;23.10;65.50;;;;;;5061234;28;20024;-87
2022/08/30 11:25:33;;;;;;;3.25;1.08;;;23.10;65.30;;;;;;5090135;28;20021;-88
2022/08/30 11:28:16;;;;;;;2.00;0.98;;;23.10;65.20;;;;;;5014953;28;20019;-89
2022/08/30 11:30:48;;;;;;;2.53;0.93;;;23.20;65.90;;;;;;5042109;28;20021;-88
2022/08/30 11:33:49;;;;;;;1.73;1.00;;;23.20;65.00;;;;;;5077450;28;20021;-89
2022/08/30 11:36:37;;;;;;;;;;;;;;;;;;;;;
2022/08/30 11:39:29;;;;;;;2.72;1.23;;;23.30;64.70;;;;;;5062726;28;19971;-88
2022/08/30 11:42:32;;;;;;;3.92;1.00;;;23.40;64.10;;;;;;5060519;28;20029;-89
2022/08/30 11:45:24;;;;;;;2.78;1.20;;;23.40;64.30;;;;;;5060562;28;20029;-89
2022/08/30 11:48:04;;;;;;;1.13;0.80;;;23.50;63.90;;;;;;5073607;28;20481;-88
2022/08/30 11:50:46;;;;;;;5.05;1.17;;;23.50;64.00;;;;;;5078630;28;20029;-88
2022/08/30 11:53:42;;;;;;;2.10;1.35;;;23.50;64.10;;;;;;5079306;28;20549;-88
2022/08/30 11:56:38;;;;;;;1.15;0.90;;;23.60;64.00;;;;;;5079628;28;20056;-88
2022/08/30 11:59:27;;;;;;;4.30;1.10;;;23.70;63.70;;;;;;5081785;28;20044;-87
2022/08/30 12:02:31;;;;;;;2.40;1.30;;;23.80;63.40;;;;;;5084165;28;20103;-88
2022/08/30 12:05:38;;;;;;;;;;;;;;;;;;;;;
2022/08/30 12:08:37;;;;;;;4.00;1.08;;;23.90;62.60;;;;;;5082261;28;20128;-88
2022/08/30 12:11:15;;;;;;;2.28;0.93;;;23.90;62.00;;;;;;5076120;28;20029;-90
2022/08/30 12:14:04;;;;;;;;;;;;;;;;;;;;;
2022/08/30 12:19:49;;;;;;;2.80;1.17;;;23.90;61.70;;;;;;5083312;28;20047;-87
2022/08/30 12:22:39;;;;;;;;;;;;;;;;;;;;;
2022/08/30 12:25:30;;;;;;;;;;;;;;;;;;;;;
2022/08/30 12:28:31;;;;;;;;;;;;;;;;;;;;;
2022/08/30 12:31:20;;;;;;;2.38;0.90;;;24.10;61.60;;;;;;5063827;28;20113;-89
2022/08/30 12:34:10;;;;;;;1.70;1.10;;;24.10;61.50;;;;;;5048997;28;20552;-87
2022/08/30 12:37:02;;;;;;;2.70;1.00;;;24.10;61.50;;;;;;5063809;28;20036;-87
2022/08/30 12:39:59;;;;;;;1.10;1.00;;;24.20;61.20;;;;;;5069002;28;20028;-88
2022/08/30 12:42:38;;;;;;;1.77;1.05;;;24.20;61.20;;;;;;5083327;28;20395;-89
2022/08/30 12:45:51;;;;;;;;;;;;;;;;;;;;;
2022/08/30 12:49:06;;;;;;;;;;;;;;;;;;;;;
2022/08/30 12:52:25;;;;;;;1.42;0.85;;;24.30;60.00;;;;;;5082617;28;20108;-88
2022/08/30 12:54:55;;;;;;;1.90;1.02;;;24.30;59.90;;;;;;5072106;28;20361;-89
2022/08/30 12:57:58;;;;;;;1.85;0.98;;;24.30;60.20;;;;;;5082610;28;20024;-88
2022/08/30 13:00:37;;;;;;;2.42;1.17;;;24.30;60.20;;;;;;5081344;28;20054;-87
2022/08/30 13:03:48;;;;;;;;;;;;;;;;;;;;;
2022/08/30 13:06:51;;;;;;;3.10;1.00;;;24.30;59.60;;;;;;5082539;28;20091;-89
2022/08/30 13:09:46;;;;;;;;;;;;;;;;;;;;;
2022/08/30 13:12:34;;;;;;;3.35;1.25;;;24.30;60.30;;;;;;5080641;28;20179;-87
2022/08/30 13:19:07;;;;;;;1.33;1.08;;;24.40;59.90;;;;;;5079790;28;20522;-88
2022/08/30 13:21:54;;;;;;;1.45;1.00;;;24.40;59.40;;;;;;5080609;28;20033;-86
2022/08/30 13:24:25;;;;;;;3.95;1.20;;;24.50;59.10;;;;;;5081014;28;20039;-87
2022/08/30 13:27:12;;;;;;;;;;;;;;;;;;;;;
2022/08/30 13:30:11;;;;;;;;;;;;;;;;;;;;;
2022/08/30 13:33:10;;;;;;;3.08;1.38;;;24.50;59.20;;;;;;5082424;28;20111;-89
2022/08/30 13:35:50;;;;;;;;;;;;;;;;;;;;;
2022/08/30 13:38:21;;;;;;;1.42;0.75;;;24.60;59.20;;;;;;5100327;28;20020;-87
2022/08/30 13:41:04;;;;;;;;;;;;;;;;;;;;;
2022/08/30 13:43:45;;;;;;;1.83;1.02;;;24.70;59.20;;;;;;5089278;28;20053;-88
2022/08/30 13:46:17;;;;;;;3.03;1.30;;;24.70;58.80;;;;;;5076079;28;20092;-89
2022/08/30 13:48:47;;;;;;;1.85;1.05;;;24.70;58.70;;;;;;5029391;28;20032;-88
2022/08/30 13:51:16;;;;;;;2.25;0.90;;;24.70;58.30;;;;;;5060305;28;20174;-89
2022/08/30 13:53:42;;;;;;;3.30;1.13;;;24.70;58.20;;;;;;5066977;28;20017;-88
2022/08/30 13:56:30;;;;;;;1.92;1.40;;;24.70;58.20;;;;;;5096827;28;20157;-87
2022/08/30 13:58:58;;;;;;;2.55;1.17;;;24.70;58.10;;;;;;5080800;28;20086;-89
2022/08/30 14:01:27;;;;;;;1.83;1.13;;;24.70;57.90;;;;;;5079580;28;20084;-87
2022/08/30 14:03:59;;;;;;;1.60;0.93;;;24.70;57.60;;;;;;5074834;28;20499;-88
2022/08/30 14:06:44;;;;;;;2.05;1.23;;;24.70;57.80;;;;;;5028350;28;20557;-87
2022/08/30 14:09:13;;;;;;;2.78;1.05;;;24.70;58.00;;;;;;5059110;28;20115;-88